sensor_id;sensor_type;location;lat;lon;timestamp;temperature;humidity
23873;DHT22;42884;50.718;4.630;2023-04-10T00:01:49;9.90;99.90
23873;DHT22;42884;50.718;4.630;2023-04-10T00:04:15;9.90;99.90
23873;DHT22;42884;50.718;4.630;2023-04-10T00:06:46;9.90;99.90
23873;DHT22;42884;50.718;4.630;2023-04-10T00:09:13;10.00;99.90
23873;DHT22;42884;50.718;4.630;2023-04-10T00:11:39;10.00;99.90
23873;DHT22;42884;50.718;4.630;2023-04-10T00:14:05;10.00;99.90
23873;DHT22;42884;50.718;4.630;2023-04-10T00:16:30;10.00;99.90
23873;DHT22;42884;50.718;4.630;2023-04-10T00:18:56;10.00;99.90
23873;DHT22;42884;50.718;4.630;2023-04-10T00:21:22;10.10;99.90
23873;DHT22;42884;50.718;4.630;2023-04-10T00:23:47;10.00;99.90
23873;DHT22;42884;50.718;4.630;2023-04-10T00:26:13;10.10;99.90
23873;DHT22;42884;50.718;4.630;2023-04-10T00:28:39;10.10;99.90
23873;DHT22;42884;50.718;4.630;2023-04-10T00:31:05;10.10;99.90
23873;DHT22;42884;50.718;4.630;2023-04-10T00:33:30;10.10;99.90
23873;DHT22;42884;50.718;4.630;2023-04-10T00:35:56;10.30;99.90
23873;DHT22;42884;50.718;4.630;2023-04-10T00:38:22;10.20;99.90
23873;DHT22;42884;50.718;4.630;2023-04-10T00:40:47;10.20;99.90
23873;DHT22;42884;50.718;4.630;2023-04-10T00:43:13;10.30;99.90
23873;DHT22;42884;50.718;4.630;2023-04-10T00:45:39;10.30;99.90
23873;DHT22;42884;50.718;4.630;2023-04-10T00:48:05;10.20;99.90
23873;DHT22;42884;50.718;4.630;2023-04-10T00:50:32;10.10;99.90
23873;DHT22;42884;50.718;4.630;2023-04-10T00:52:58;10.20;99.90
23873;DHT22;42884;50.718;4.630;2023-04-10T00:55:24;10.20;99.90
23873;DHT22;42884;50.718;4.630;2023-04-10T00:57:51;10.20;99.90
23873;DHT22;42884;50.718;4.630;2023-04-10T01:00:17;10.20;99.90
23873;DHT22;42884;50.718;4.630;2023-04-10T01:02:43;10.20;99.90
23873;DHT22;42884;50.718;4.630;2023-04-10T01:05:09;10.20;99.90
23873;DHT22;42884;50.718;4.630;2023-04-10T01:07:58;10.20;99.90
23873;DHT22;42884;50.718;4.630;2023-04-10T01:13:20;10.20;99.90
23873;DHT22;42884;50.718;4.630;2023-04-10T01:15:55;10.10;99.90
23873;DHT22;42884;50.718;4.630;2023-04-10T01:18:47;10.10;99.90
23873;DHT22;42884;50.718;4.630;2023-04-10T01:21:16;10.00;99.90
23873;DHT22;42884;50.718;4.630;2023-04-10T01:29:22;10.00;99.90
23873;DHT22;42884;50.718;4.630;2023-04-10T01:31:57;9.90;99.90
23873;DHT22;42884;50.718;4.630;2023-04-10T01:34:45;9.80;99.90
23873;DHT22;42884;50.718;4.630;2023-04-10T01:37:23;9.90;99.90
23873;DHT22;42884;50.718;4.630;2023-04-10T01:39:56;9.80;99.90
23873;DHT22;42884;50.718;4.630;2023-04-10T01:42:24;9.80;99.90
23873;DHT22;42884;50.718;4.630;2023-04-10T01:44:52;9.80;99.90
23873;DHT22;42884;50.718;4.630;2023-04-10T01:47:19;9.80;99.90
23873;DHT22;42884;50.718;4.630;2023-04-10T01:49:46;9.80;99.90
23873;DHT22;42884;50.718;4.630;2023-04-10T01:52:14;9.80;99.90
23873;DHT22;42884;50.718;4.630;2023-04-10T01:54:41;9.70;99.90
23873;DHT22;42884;50.718;4.630;2023-04-10T01:57:10;9.70;99.90
23873;DHT22;42884;50.718;4.630;2023-04-10T01:59:38;9.80;99.90
23873;DHT22;42884;50.718;4.630;2023-04-10T02:02:04;9.80;99.90
23873;DHT22;42884;50.718;4.630;2023-04-10T02:04:32;9.80;99.90
23873;DHT22;42884;50.718;4.630;2023-04-10T02:09:53;9.70;99.90
23873;DHT22;42884;50.718;4.630;2023-04-10T02:12:38;9.60;99.90
23873;DHT22;42884;50.718;4.630;2023-04-10T02:15:06;9.50;99.90
23873;DHT22;42884;50.718;4.630;2023-04-10T02:17:34;9.60;99.90
23873;DHT22;42884;50.718;4.630;2023-04-10T02:20:02;9.50;99.90
23873;DHT22;42884;50.718;4.630;2023-04-10T02:22:29;9.60;99.90
23873;DHT22;42884;50.718;4.630;2023-04-10T02:24:56;9.60;99.90
23873;DHT22;42884;50.718;4.630;2023-04-10T02:27:29;9.50;99.90
23873;DHT22;42884;50.718;4.630;2023-04-10T02:29:55;9.60;99.90
23873;DHT22;42884;50.718;4.630;2023-04-10T02:32:22;9.60;99.90
23873;DHT22;42884;50.718;4.630;2023-04-10T02:34:48;9.60;99.90
23873;DHT22;42884;50.718;4.630;2023-04-10T02:37:13;9.70;99.90
23873;DHT22;42884;50.718;4.630;2023-04-10T02:39:39;9.60;99.90
23873;DHT22;42884;50.718;4.630;2023-04-10T02:42:06;9.60;99.90
23873;DHT22;42884;50.718;4.630;2023-04-10T02:44:31;9.60;99.90
23873;DHT22;42884;50.718;4.630;2023-04-10T02:46:57;9.50;99.90
23873;DHT22;42884;50.718;4.630;2023-04-10T02:49:23;9.50;99.90
23873;DHT22;42884;50.718;4.630;2023-04-10T02:51:49;9.40;99.90
23873;DHT22;42884;50.718;4.630;2023-04-10T02:54:14;9.40;99.90
23873;DHT22;42884;50.718;4.630;2023-04-10T02:56:40;9.40;99.90
23873;DHT22;42884;50.718;4.630;2023-04-10T02:59:06;9.40;99.90
23873;DHT22;42884;50.718;4.630;2023-04-10T03:01:32;9.40;99.90
23873;DHT22;42884;50.718;4.630;2023-04-10T03:03:58;9.30;99.90
23873;DHT22;42884;50.718;4.630;2023-04-10T03:06:24;9.30;99.90
23873;DHT22;42884;50.718;4.630;2023-04-10T03:08:52;9.30;99.90
23873;DHT22;42884;50.718;4.630;2023-04-10T03:11:17;9.30;99.90
23873;DHT22;42884;50.718;4.630;2023-04-10T03:13:43;9.30;99.90
23873;DHT22;42884;50.718;4.630;2023-04-10T03:16:09;9.20;99.90
23873;DHT22;42884;50.718;4.630;2023-04-10T03:18:35;9.20;99.90
23873;DHT22;42884;50.718;4.630;2023-04-10T03:21:01;9.20;99.90
23873;DHT22;42884;50.718;4.630;2023-04-10T03:23:27;9.30;99.90
23873;DHT22;42884;50.718;4.630;2023-04-10T03:25:53;9.30;99.90
23873;DHT22;42884;50.718;4.630;2023-04-10T03:28:20;9.20;99.90
23873;DHT22;42884;50.718;4.630;2023-04-10T03:30:45;9.30;99.90
23873;DHT22;42884;50.718;4.630;2023-04-10T03:33:11;9.30;99.90
23873;DHT22;42884;50.718;4.630;2023-04-10T03:35:37;9.20;99.90
23873;DHT22;42884;50.718;4.630;2023-04-10T03:38:03;9.30;99.90
23873;DHT22;42884;50.718;4.630;2023-04-10T03:40:29;9.30;99.90
23873;DHT22;42884;50.718;4.630;2023-04-10T03:42:54;9.30;99.90
23873;DHT22;42884;50.718;4.630;2023-04-10T03:45:20;9.30;99.90
23873;DHT22;42884;50.718;4.630;2023-04-10T03:47:46;9.40;99.90
23873;DHT22;42884;50.718;4.630;2023-04-10T03:50:12;9.30;99.90
23873;DHT22;42884;50.718;4.630;2023-04-10T03:52:38;9.30;99.90
23873;DHT22;42884;50.718;4.630;2023-04-10T03:55:05;9.30;99.90
23873;DHT22;42884;50.718;4.630;2023-04-10T03:57:30;9.30;99.90
23873;DHT22;42884;50.718;4.630;2023-04-10T03:59:56;9.30;99.90
23873;DHT22;42884;50.718;4.630;2023-04-10T04:02:22;9.20;99.90
23873;DHT22;42884;50.718;4.630;2023-04-10T04:04:48;9.20;99.90
23873;DHT22;42884;50.718;4.630;2023-04-10T04:07:13;9.20;99.90
23873;DHT22;42884;50.718;4.630;2023-04-10T04:09:39;9.10;99.90
23873;DHT22;42884;50.718;4.630;2023-04-10T04:12:06;9.00;99.90
23873;DHT22;42884;50.718;4.630;2023-04-10T04:14:32;9.00;99.90
23873;DHT22;42884;50.718;4.630;2023-04-10T04:16:58;9.00;99.90
23873;DHT22;42884;50.718;4.630;2023-04-10T04:19:23;8.90;99.90
23873;DHT22;42884;50.718;4.630;2023-04-10T04:21:49;8.90;99.90
23873;DHT22;42884;50.718;4.630;2023-04-10T04:24:15;8.80;99.90
23873;DHT22;42884;50.718;4.630;2023-04-10T04:26:41;8.70;99.90
23873;DHT22;42884;50.718;4.630;2023-04-10T04:29:07;8.60;99.90
23873;DHT22;42884;50.718;4.630;2023-04-10T04:31:32;8.60;99.90
23873;DHT22;42884;50.718;4.630;2023-04-10T04:33:59;8.50;99.90
23873;DHT22;42884;50.718;4.630;2023-04-10T04:36:25;8.50;99.90
23873;DHT22;42884;50.718;4.630;2023-04-10T04:38:52;8.50;99.90
23873;DHT22;42884;50.718;4.630;2023-04-10T04:41:18;8.50;99.90
23873;DHT22;42884;50.718;4.630;2023-04-10T04:43:44;8.60;99.90
23873;DHT22;42884;50.718;4.630;2023-04-10T04:46:12;8.50;99.90
23873;DHT22;42884;50.718;4.630;2023-04-10T04:48:37;8.60;99.90
23873;DHT22;42884;50.718;4.630;2023-04-10T04:51:05;8.50;99.90
23873;DHT22;42884;50.718;4.630;2023-04-10T04:53:31;8.50;99.90
23873;DHT22;42884;50.718;4.630;2023-04-10T04:55:57;8.50;99.90
23873;DHT22;42884;50.718;4.630;2023-04-10T04:58:22;8.50;99.90
23873;DHT22;42884;50.718;4.630;2023-04-10T05:00:51;8.60;99.90
23873;DHT22;42884;50.718;4.630;2023-04-10T05:03:17;8.50;99.90
23873;DHT22;42884;50.718;4.630;2023-04-10T05:05:43;8.50;99.90
23873;DHT22;42884;50.718;4.630;2023-04-10T05:08:09;8.50;99.90
23873;DHT22;42884;50.718;4.630;2023-04-10T05:10:35;8.50;99.90
23873;DHT22;42884;50.718;4.630;2023-04-10T05:13:00;8.50;99.90
23873;DHT22;42884;50.718;4.630;2023-04-10T05:15:26;8.50;99.90
23873;DHT22;42884;50.718;4.630;2023-04-10T05:17:53;8.50;99.90
23873;DHT22;42884;50.718;4.630;2023-04-10T05:20:18;8.50;99.90
23873;DHT22;42884;50.718;4.630;2023-04-10T05:22:46;8.60;99.90
23873;DHT22;42884;50.718;4.630;2023-04-10T05:25:12;8.70;99.90
23873;DHT22;42884;50.718;4.630;2023-04-10T05:27:38;8.70;99.90
23873;DHT22;42884;50.718;4.630;2023-04-10T05:30:04;8.80;99.90
23873;DHT22;42884;50.718;4.630;2023-04-10T05:32:30;8.90;99.90
23873;DHT22;42884;50.718;4.630;2023-04-10T05:34:56;9.00;99.90
23873;DHT22;42884;50.718;4.630;2023-04-10T05:37:21;9.10;99.90
23873;DHT22;42884;50.718;4.630;2023-04-10T05:39:47;9.20;99.90
23873;DHT22;42884;50.718;4.630;2023-04-10T05:42:13;9.20;99.90
23873;DHT22;42884;50.718;4.630;2023-04-10T05:44:39;9.30;99.90
23873;DHT22;42884;50.718;4.630;2023-04-10T05:47:05;9.40;99.90
23873;DHT22;42884;50.718;4.630;2023-04-10T05:49:30;9.40;99.90
23873;DHT22;42884;50.718;4.630;2023-04-10T05:51:56;9.60;99.90
23873;DHT22;42884;50.718;4.630;2023-04-10T05:54:22;9.60;99.90
23873;DHT22;42884;50.718;4.630;2023-04-10T05:56:48;9.70;99.90
23873;DHT22;42884;50.718;4.630;2023-04-10T05:59:13;9.80;99.90
23873;DHT22;42884;50.718;4.630;2023-04-10T06:01:40;10.00;99.90
23873;DHT22;42884;50.718;4.630;2023-04-10T06:04:06;10.00;99.90
23873;DHT22;42884;50.718;4.630;2023-04-10T06:06:32;10.00;99.90
23873;DHT22;42884;50.718;4.630;2023-04-10T06:08:58;10.10;99.90
23873;DHT22;42884;50.718;4.630;2023-04-10T06:11:24;10.20;99.90
23873;DHT22;42884;50.718;4.630;2023-04-10T06:13:49;10.20;99.90
23873;DHT22;42884;50.718;4.630;2023-04-10T06:16:15;10.20;99.90
23873;DHT22;42884;50.718;4.630;2023-04-10T06:18:42;10.20;99.90
23873;DHT22;42884;50.718;4.630;2023-04-10T06:21:07;10.30;99.90
23873;DHT22;42884;50.718;4.630;2023-04-10T06:23:33;10.40;99.90
23873;DHT22;42884;50.718;4.630;2023-04-10T06:25:59;10.50;99.90
23873;DHT22;42884;50.718;4.630;2023-04-10T06:28:26;10.60;99.90
23873;DHT22;42884;50.718;4.630;2023-04-10T06:30:51;10.60;99.90
23873;DHT22;42884;50.718;4.630;2023-04-10T06:33:17;10.50;99.90
23873;DHT22;42884;50.718;4.630;2023-04-10T06:35:43;10.50;99.90
23873;DHT22;42884;50.718;4.630;2023-04-10T06:38:08;10.40;99.90
23873;DHT22;42884;50.718;4.630;2023-04-10T06:40:34;10.60;99.90
23873;DHT22;42884;50.718;4.630;2023-04-10T06:43:00;10.70;99.90
23873;DHT22;42884;50.718;4.630;2023-04-10T06:45:26;10.80;99.90
23873;DHT22;42884;50.718;4.630;2023-04-10T06:47:52;10.90;99.90
23873;DHT22;42884;50.718;4.630;2023-04-10T06:50:18;11.00;99.90
23873;DHT22;42884;50.718;4.630;2023-04-10T06:52:44;11.00;99.90
23873;DHT22;42884;50.718;4.630;2023-04-10T06:55:10;10.90;99.90
23873;DHT22;42884;50.718;4.630;2023-04-10T06:57:38;11.00;99.90
23873;DHT22;42884;50.718;4.630;2023-04-10T07:00:04;11.00;99.90
23873;DHT22;42884;50.718;4.630;2023-04-10T07:02:31;11.00;99.90
23873;DHT22;42884;50.718;4.630;2023-04-10T07:04:56;11.10;99.90
23873;DHT22;42884;50.718;4.630;2023-04-10T07:07:22;11.00;99.90
23873;DHT22;42884;50.718;4.630;2023-04-10T07:09:48;11.00;99.90
23873;DHT22;42884;50.718;4.630;2023-04-10T07:12:14;11.10;99.90
23873;DHT22;42884;50.718;4.630;2023-04-10T07:14:39;11.00;99.90
23873;DHT22;42884;50.718;4.630;2023-04-10T07:17:05;11.10;99.90
23873;DHT22;42884;50.718;4.630;2023-04-10T07:19:31;11.20;99.90
23873;DHT22;42884;50.718;4.630;2023-04-10T07:21:57;11.20;99.90
23873;DHT22;42884;50.718;4.630;2023-04-10T07:24:23;11.40;99.90
23873;DHT22;42884;50.718;4.630;2023-04-10T07:26:49;11.40;99.90
23873;DHT22;42884;50.718;4.630;2023-04-10T07:29:15;11.50;99.90
23873;DHT22;42884;50.718;4.630;2023-04-10T07:31:41;11.60;99.90
23873;DHT22;42884;50.718;4.630;2023-04-10T07:34:07;11.70;99.90
23873;DHT22;42884;50.718;4.630;2023-04-10T07:36:32;11.80;99.90
23873;DHT22;42884;50.718;4.630;2023-04-10T07:38:58;11.90;99.90
23873;DHT22;42884;50.718;4.630;2023-04-10T07:41:24;11.90;99.90
23873;DHT22;42884;50.718;4.630;2023-04-10T07:43:50;12.00;99.90
23873;DHT22;42884;50.718;4.630;2023-04-10T07:46:16;12.20;99.90
23873;DHT22;42884;50.718;4.630;2023-04-10T07:48:42;12.30;99.90
23873;DHT22;42884;50.718;4.630;2023-04-10T07:51:08;12.30;99.90
23873;DHT22;42884;50.718;4.630;2023-04-10T07:53:35;12.20;99.90
23873;DHT22;42884;50.718;4.630;2023-04-10T07:56:01;12.20;99.90
23873;DHT22;42884;50.718;4.630;2023-04-10T07:58:27;12.30;99.90
23873;DHT22;42884;50.718;4.630;2023-04-10T08:00:53;12.20;99.90
23873;DHT22;42884;50.718;4.630;2023-04-10T08:03:19;12.30;99.90
23873;DHT22;42884;50.718;4.630;2023-04-10T08:05:44;12.30;99.90
23873;DHT22;42884;50.718;4.630;2023-04-10T08:08:10;12.30;99.90
23873;DHT22;42884;50.718;4.630;2023-04-10T08:10:37;12.30;99.90
23873;DHT22;42884;50.718;4.630;2023-04-10T08:13:04;12.20;99.90
23873;DHT22;42884;50.718;4.630;2023-04-10T08:15:30;12.30;99.90
23873;DHT22;42884;50.718;4.630;2023-04-10T08:17:56;12.40;99.90
23873;DHT22;42884;50.718;4.630;2023-04-10T08:20:22;12.40;99.90
23873;DHT22;42884;50.718;4.630;2023-04-10T08:22:48;12.50;99.90
23873;DHT22;42884;50.718;4.630;2023-04-10T08:25:13;12.70;99.90
23873;DHT22;42884;50.718;4.630;2023-04-10T08:27:40;12.70;99.90
23873;DHT22;42884;50.718;4.630;2023-04-10T08:30:06;12.90;99.90
23873;DHT22;42884;50.718;4.630;2023-04-10T08:32:32;13.00;99.90
23873;DHT22;42884;50.718;4.630;2023-04-10T08:34:58;13.20;99.90
23873;DHT22;42884;50.718;4.630;2023-04-10T08:37:25;13.30;99.90
23873;DHT22;42884;50.718;4.630;2023-04-10T08:39:51;13.20;99.90
23873;DHT22;42884;50.718;4.630;2023-04-10T08:42:17;13.20;99.90
23873;DHT22;42884;50.718;4.630;2023-04-10T08:44:43;13.30;99.90
23873;DHT22;42884;50.718;4.630;2023-04-10T08:47:10;13.40;99.90
23873;DHT22;42884;50.718;4.630;2023-04-10T08:49:48;13.60;99.90
23873;DHT22;42884;50.718;4.630;2023-04-10T08:52:20;13.70;99.90
23873;DHT22;42884;50.718;4.630;2023-04-10T08:54:50;13.70;99.90
23873;DHT22;42884;50.718;4.630;2023-04-10T08:57:18;13.60;99.90
23873;DHT22;42884;50.718;4.630;2023-04-10T08:59:46;13.70;99.90
23873;DHT22;42884;50.718;4.630;2023-04-10T09:02:12;13.90;99.90
23873;DHT22;42884;50.718;4.630;2023-04-10T09:04:38;14.00;99.90
23873;DHT22;42884;50.718;4.630;2023-04-10T09:07:04;13.90;99.90
23873;DHT22;42884;50.718;4.630;2023-04-10T09:09:33;14.00;99.90
23873;DHT22;42884;50.718;4.630;2023-04-10T09:12:02;13.90;99.90
23873;DHT22;42884;50.718;4.630;2023-04-10T09:14:45;14.00;99.90
23873;DHT22;42884;50.718;4.630;2023-04-10T09:17:19;14.00;99.90
23873;DHT22;42884;50.718;4.630;2023-04-10T09:19:47;14.20;99.90
23873;DHT22;42884;50.718;4.630;2023-04-10T09:22:16;14.20;99.90
23873;DHT22;42884;50.718;4.630;2023-04-10T09:24:51;14.40;99.90
23873;DHT22;42884;50.718;4.630;2023-04-10T09:27:35;14.40;99.90
23873;DHT22;42884;50.718;4.630;2023-04-10T09:30:02;14.50;99.90
23873;DHT22;42884;50.718;4.630;2023-04-10T09:32:43;14.70;99.90
23873;DHT22;42884;50.718;4.630;2023-04-10T09:35:11;14.90;99.90
23873;DHT22;42884;50.718;4.630;2023-04-10T09:37:55;15.00;99.90
23873;DHT22;42884;50.718;4.630;2023-04-10T09:40:31;15.20;99.90
23873;DHT22;42884;50.718;4.630;2023-04-10T09:43:25;15.30;99.90
23873;DHT22;42884;50.718;4.630;2023-04-10T09:46:00;15.40;99.90
23873;DHT22;42884;50.718;4.630;2023-04-10T09:48:31;15.70;99.90
23873;DHT22;42884;50.718;4.630;2023-04-10T09:51:14;15.70;99.90
23873;DHT22;42884;50.718;4.630;2023-04-10T09:53:49;15.60;99.90
23873;DHT22;42884;50.718;4.630;2023-04-10T09:56:24;15.80;99.90
23873;DHT22;42884;50.718;4.630;2023-04-10T09:58:56;16.10;99.90
23873;DHT22;42884;50.718;4.630;2023-04-10T10:01:27;16.10;99.90
23873;DHT22;42884;50.718;4.630;2023-04-10T10:04:11;15.90;99.90
23873;DHT22;42884;50.718;4.630;2023-04-10T10:06:59;16.00;99.90
23873;DHT22;42884;50.718;4.630;2023-04-10T10:12:04;16.30;99.90
23873;DHT22;42884;50.718;4.630;2023-04-10T10:14:44;16.50;99.90
23873;DHT22;42884;50.718;4.630;2023-04-10T10:17:24;16.80;99.90
23873;DHT22;42884;50.718;4.630;2023-04-10T10:20:08;16.90;99.90
23873;DHT22;42884;50.718;4.630;2023-04-10T10:22:46;17.10;99.90
23873;DHT22;42884;50.718;4.630;2023-04-10T10:25:17;17.00;99.90
23873;DHT22;42884;50.718;4.630;2023-04-10T10:27:51;17.00;99.90
23873;DHT22;42884;50.718;4.630;2023-04-10T10:30:21;17.10;99.90
23873;DHT22;42884;50.718;4.630;2023-04-10T10:32:53;17.30;99.90
23873;DHT22;42884;50.718;4.630;2023-04-10T10:35:19;17.50;99.90
23873;DHT22;42884;50.718;4.630;2023-04-10T10:37:47;17.50;99.90
23873;DHT22;42884;50.718;4.630;2023-04-10T10:40:34;17.60;99.90
23873;DHT22;42884;50.718;4.630;2023-04-10T10:43:46;17.70;99.90
23873;DHT22;42884;50.718;4.630;2023-04-10T10:46:02;17.80;99.90
23873;DHT22;42884;50.718;4.630;2023-04-10T10:48:29;17.70;99.90
23873;DHT22;42884;50.718;4.630;2023-04-10T10:50:57;17.80;99.90
23873;DHT22;42884;50.718;4.630;2023-04-10T10:53:40;18.10;99.90
23873;DHT22;42884;50.718;4.630;2023-04-10T10:58:52;18.50;99.90
23873;DHT22;42884;50.718;4.630;2023-04-10T11:01:27;18.30;99.90
23873;DHT22;42884;50.718;4.630;2023-04-10T11:03:53;18.30;99.90
23873;DHT22;42884;50.718;4.630;2023-04-10T11:06:20;18.30;99.90
23873;DHT22;42884;50.718;4.630;2023-04-10T11:08:51;18.30;99.90
23873;DHT22;42884;50.718;4.630;2023-04-10T11:11:27;18.50;99.90
23873;DHT22;42884;50.718;4.630;2023-04-10T11:14:12;18.60;99.90
23873;DHT22;42884;50.718;4.630;2023-04-10T11:16:44;18.60;99.90
23873;DHT22;42884;50.718;4.630;2023-04-10T11:19:11;18.50;99.90
23873;DHT22;42884;50.718;4.630;2023-04-10T11:24:23;18.50;99.90
23873;DHT22;42884;50.718;4.630;2023-04-10T11:26:58;18.60;99.90
23873;DHT22;42884;50.718;4.630;2023-04-10T11:31:58;18.70;99.90
23873;DHT22;42884;50.718;4.630;2023-04-10T11:34:29;18.80;99.90
23873;DHT22;42884;50.718;4.630;2023-04-10T11:36:56;19.00;99.90
23873;DHT22;42884;50.718;4.630;2023-04-10T11:39:23;19.00;99.90
23873;DHT22;42884;50.718;4.630;2023-04-10T11:41:51;18.90;99.90
23873;DHT22;42884;50.718;4.630;2023-04-10T11:44:30;18.80;99.90
23873;DHT22;42884;50.718;4.630;2023-04-10T11:46:57;18.80;99.90
23873;DHT22;42884;50.718;4.630;2023-04-10T11:49:33;18.70;99.90
23873;DHT22;42884;50.718;4.630;2023-04-10T11:51:59;18.60;99.90
23873;DHT22;42884;50.718;4.630;2023-04-10T11:54:28;18.70;99.90
23873;DHT22;42884;50.718;4.630;2023-04-10T11:57:05;18.60;99.90
23873;DHT22;42884;50.718;4.630;2023-04-10T11:59:48;18.50;99.90
23873;DHT22;42884;50.718;4.630;2023-04-10T12:02:14;18.90;99.90
23873;DHT22;42884;50.718;4.630;2023-04-10T12:04:57;19.20;99.90
23873;DHT22;42884;50.718;4.630;2023-04-10T12:07:33;19.60;99.90
23873;DHT22;42884;50.718;4.630;2023-04-10T12:09:59;19.40;99.90
23873;DHT22;42884;50.718;4.630;2023-04-10T12:12:52;19.40;99.90
23873;DHT22;42884;50.718;4.630;2023-04-10T12:15:28;19.50;99.90
23873;DHT22;42884;50.718;4.630;2023-04-10T12:17:55;19.50;99.90
23873;DHT22;42884;50.718;4.630;2023-04-10T12:20:21;19.30;99.90
23873;DHT22;42884;50.718;4.630;2023-04-10T12:22:51;19.10;99.90
23873;DHT22;42884;50.718;4.630;2023-04-10T12:25:20;18.90;99.90
23873;DHT22;42884;50.718;4.630;2023-04-10T12:27:48;18.80;99.90
23873;DHT22;42884;50.718;4.630;2023-04-10T12:30:16;18.60;99.90
23873;DHT22;42884;50.718;4.630;2023-04-10T12:32:50;18.60;99.90
23873;DHT22;42884;50.718;4.630;2023-04-10T12:35:17;18.40;99.90
23873;DHT22;42884;50.718;4.630;2023-04-10T12:37:50;18.50;99.90
23873;DHT22;42884;50.718;4.630;2023-04-10T12:40:17;18.50;99.90
23873;DHT22;42884;50.718;4.630;2023-04-10T12:42:45;18.50;99.90
23873;DHT22;42884;50.718;4.630;2023-04-10T12:45:16;18.50;99.90
23873;DHT22;42884;50.718;4.630;2023-04-10T12:47:48;18.30;99.90
23873;DHT22;42884;50.718;4.630;2023-04-10T12:50:20;18.20;99.90
23873;DHT22;42884;50.718;4.630;2023-04-10T12:53:01;18.30;99.90
23873;DHT22;42884;50.718;4.630;2023-04-10T12:55:35;18.20;99.90
23873;DHT22;42884;50.718;4.630;2023-04-10T12:58:19;18.00;99.90
23873;DHT22;42884;50.718;4.630;2023-04-10T13:00:46;18.10;99.90
23873;DHT22;42884;50.718;4.630;2023-04-10T13:03:15;18.10;99.90
23873;DHT22;42884;50.718;4.630;2023-04-10T13:05:48;18.10;99.90
23873;DHT22;42884;50.718;4.630;2023-04-10T13:08:14;18.10;99.90
23873;DHT22;42884;50.718;4.630;2023-04-10T13:10:45;18.10;99.90
23873;DHT22;42884;50.718;4.630;2023-04-10T13:13:17;18.10;99.90
23873;DHT22;42884;50.718;4.630;2023-04-10T13:15:48;18.10;99.90
23873;DHT22;42884;50.718;4.630;2023-04-10T13:18:17;18.10;99.90
23873;DHT22;42884;50.718;4.630;2023-04-10T13:20:43;18.20;99.90
23873;DHT22;42884;50.718;4.630;2023-04-10T13:23:08;18.00;99.90
23873;DHT22;42884;50.718;4.630;2023-04-10T13:25:40;17.80;99.90
23873;DHT22;42884;50.718;4.630;2023-04-10T13:28:09;18.00;99.90
23873;DHT22;42884;50.718;4.630;2023-04-10T13:30:40;18.30;99.90
23873;DHT22;42884;50.718;4.630;2023-04-10T13:33:07;18.40;99.90
23873;DHT22;42884;50.718;4.630;2023-04-10T13:35:33;18.60;99.90
23873;DHT22;42884;50.718;4.630;2023-04-10T13:38:08;18.50;99.90
23873;DHT22;42884;50.718;4.630;2023-04-10T13:40:36;18.50;99.90
23873;DHT22;42884;50.718;4.630;2023-04-10T13:43:02;18.30;99.90
23873;DHT22;42884;50.718;4.630;2023-04-10T13:45:28;18.10;99.90
23873;DHT22;42884;50.718;4.630;2023-04-10T13:47:56;18.10;99.90
23873;DHT22;42884;50.718;4.630;2023-04-10T13:50:22;18.30;99.90
23873;DHT22;42884;50.718;4.630;2023-04-10T13:53:03;18.20;99.90
23873;DHT22;42884;50.718;4.630;2023-04-10T13:55:34;18.20;99.90
23873;DHT22;42884;50.718;4.630;2023-04-10T13:58:05;18.40;99.90
23873;DHT22;42884;50.718;4.630;2023-04-10T14:00:31;18.20;99.90
23873;DHT22;42884;50.718;4.630;2023-04-10T14:02:57;18.00;99.90
23873;DHT22;42884;50.718;4.630;2023-04-10T14:05:23;17.90;99.90
23873;DHT22;42884;50.718;4.630;2023-04-10T14:07:49;17.80;99.90
23873;DHT22;42884;50.718;4.630;2023-04-10T14:10:18;17.60;99.90
23873;DHT22;42884;50.718;4.630;2023-04-10T14:12:47;17.60;99.90
23873;DHT22;42884;50.718;4.630;2023-04-10T14:15:13;17.60;99.90
23873;DHT22;42884;50.718;4.630;2023-04-10T14:17:39;17.60;99.90
23873;DHT22;42884;50.718;4.630;2023-04-10T14:20:08;17.70;99.90
23873;DHT22;42884;50.718;4.630;2023-04-10T14:22:40;17.70;99.90
23873;DHT22;42884;50.718;4.630;2023-04-10T14:25:14;17.70;99.90
23873;DHT22;42884;50.718;4.630;2023-04-10T14:27:46;17.70;99.90
23873;DHT22;42884;50.718;4.630;2023-04-10T14:30:12;17.70;99.90
23873;DHT22;42884;50.718;4.630;2023-04-10T14:32:38;17.60;99.90
23873;DHT22;42884;50.718;4.630;2023-04-10T14:35:07;17.60;99.90
23873;DHT22;42884;50.718;4.630;2023-04-10T14:37:33;17.60;99.90
23873;DHT22;42884;50.718;4.630;2023-04-10T14:39:59;17.60;99.90
23873;DHT22;42884;50.718;4.630;2023-04-10T14:42:25;17.70;99.90
23873;DHT22;42884;50.718;4.630;2023-04-10T14:44:54;17.70;99.90
23873;DHT22;42884;50.718;4.630;2023-04-10T14:47:23;17.70;99.90
23873;DHT22;42884;50.718;4.630;2023-04-10T14:49:49;17.80;99.90
23873;DHT22;42884;50.718;4.630;2023-04-10T14:52:17;17.80;99.90
23873;DHT22;42884;50.718;4.630;2023-04-10T14:54:43;17.80;99.90
23873;DHT22;42884;50.718;4.630;2023-04-10T14:57:12;17.90;99.90
23873;DHT22;42884;50.718;4.630;2023-04-10T14:59:40;18.00;99.90
23873;DHT22;42884;50.718;4.630;2023-04-10T15:02:06;18.00;99.90
23873;DHT22;42884;50.718;4.630;2023-04-10T15:04:34;18.00;99.90
23873;DHT22;42884;50.718;4.630;2023-04-10T15:07:00;17.90;99.90
23873;DHT22;42884;50.718;4.630;2023-04-10T15:09:26;17.70;99.90
23873;DHT22;42884;50.718;4.630;2023-04-10T15:11:52;17.50;99.90
23873;DHT22;42884;50.718;4.630;2023-04-10T15:14:21;16.90;99.90
23873;DHT22;42884;50.718;4.630;2023-04-10T15:16:46;16.60;99.90
23873;DHT22;42884;50.718;4.630;2023-04-10T15:19:12;16.50;99.90
23873;DHT22;42884;50.718;4.630;2023-04-10T15:21:38;16.30;99.90
23873;DHT22;42884;50.718;4.630;2023-04-10T15:24:05;16.10;99.90
23873;DHT22;42884;50.718;4.630;2023-04-10T15:26:40;16.20;99.90
23873;DHT22;42884;50.718;4.630;2023-04-10T15:29:18;16.00;99.90
23873;DHT22;42884;50.718;4.630;2023-04-10T15:31:43;16.00;99.90
23873;DHT22;42884;50.718;4.630;2023-04-10T15:34:09;15.80;99.90
23873;DHT22;42884;50.718;4.630;2023-04-10T15:36:35;15.90;99.90
23873;DHT22;42884;50.718;4.630;2023-04-10T15:39:01;15.80;99.90
23873;DHT22;42884;50.718;4.630;2023-04-10T15:41:29;15.90;99.90
23873;DHT22;42884;50.718;4.630;2023-04-10T15:43:57;15.80;99.90
23873;DHT22;42884;50.718;4.630;2023-04-10T15:46:23;15.60;99.90
23873;DHT22;42884;50.718;4.630;2023-04-10T15:48:49;15.60;99.90
23873;DHT22;42884;50.718;4.630;2023-04-10T15:51:15;15.60;99.90
23873;DHT22;42884;50.718;4.630;2023-04-10T15:53:40;15.60;99.90
23873;DHT22;42884;50.718;4.630;2023-04-10T15:56:07;15.40;99.90
23873;DHT22;42884;50.718;4.630;2023-04-10T15:58:33;15.40;99.90
23873;DHT22;42884;50.718;4.630;2023-04-10T16:01:00;15.30;99.90
23873;DHT22;42884;50.718;4.630;2023-04-10T16:03:26;15.20;99.90
23873;DHT22;42884;50.718;4.630;2023-04-10T16:05:52;15.10;99.90